Time;durP1;ratioP1;P1;durP2;ratioP2;P2;SDS_P1;SDS_P2;PMS_P1;PMS_P2;Temp;Humidity;BMP_temperature;BMP_pressure;BME280_temperature;BME280_humidity;BME280_pressure;Samples;Min_cycle;Max_cycle;Signal;HPM_P1;HPM_P2
2024/01/06 00:08:30;;;;;;;1.60;1.20;;;7.60;98.20;;;;;;6096140;23;20773;-82
2024/01/06 00:10:57;;;;;;;1.60;1.20;;;7.60;98.20;;;;;;6109922;23;20413;-82
2024/01/06 00:13:24;;;;;;;1.60;1.30;;;7.60;98.20;;;;;;6116940;23;20415;-82
2024/01/06 00:15:51;;;;;;;1.60;1.27;;;7.60;98.20;;;;;;6090649;23;20407;-82
2024/01/06 00:18:18;;;;;;;1.60;1.20;;;7.60;98.20;;;;;;6116796;23;20438;-81
2024/01/06 00:21:00;;;;;;;1.90;1.70;;;7.60;98.20;;;;;;6095108;23;20446;-82
2024/01/06 00:23:27;;;;;;;1.60;1.20;;;7.60;98.20;;;;;;6080494;23;20518;-82
2024/01/06 00:25:54;;;;;;;1.60;1.20;;;7.60;98.20;;;;;;6080777;23;20445;-81
2024/01/06 00:28:21;;;;;;;1.60;1.30;;;7.60;98.20;;;;;;6115798;23;21038;-82
2024/01/06 00:30:47;;;;;;;1.60;1.40;;;7.60;98.20;;;;;;6090966;23;20417;-81
2024/01/06 00:33:14;;;;;;;1.60;1.30;;;7.60;98.20;;;;;;6117031;23;20435;-82
2024/01/06 00:35:41;;;;;;;1.60;1.20;;;7.60;98.20;;;;;;6096060;23;20509;-82
2024/01/06 00:38:10;;;;;;;1.60;1.20;;;7.60;98.20;;;;;;6103862;23;20525;-82
2024/01/06 00:40:37;;;;;;;1.60;1.20;;;7.60;98.20;;;;;;6098840;23;20443;-80
2024/01/06 00:43:04;;;;;;;1.60;1.20;;;7.60;98.20;;;;;;6107204;23;20450;-82
2024/01/06 00:45:31;;;;;;;1.60;1.20;;;7.60;98.20;;;;;;6098782;23;20433;-82
2024/01/06 00:47:58;;;;;;;1.60;1.30;;;7.60;98.20;;;;;;6103348;23;20449;-82
2024/01/06 00:50:25;;;;;;;1.60;1.20;;;7.60;98.20;;;;;;6104864;23;20812;-79
2024/01/06 00:52:52;;;;;;;1.60;1.30;;;7.60;98.20;;;;;;6070964;23;20538;-83
2024/01/06 00:55:21;;;;;;;1.60;1.17;;;7.60;98.20;;;;;;6093233;23;20868;-83
2024/01/06 00:57:48;;;;;;;1.60;1.30;;;7.60;98.20;;;;;;6078538;23;20529;-83
2024/01/06 01:00:15;;;;;;;1.60;1.20;;;7.60;98.20;;;;;;6095428;23;20457;-83
2024/01/06 01:02:42;;;;;;;1.60;1.20;;;7.60;98.20;;;;;;6079257;23;20482;-82
2024/01/06 01:05:09;;;;;;;1.60;1.30;;;7.60;98.20;;;;;;6105371;23;20432;-82
2024/01/06 01:07:36;;;;;;;1.60;1.20;;;7.60;98.20;;;;;;6077513;23;20451;-82
2024/01/06 01:10:04;;;;;;;1.60;1.20;;;7.60;98.20;;;;;;6093296;23;20454;-82
2024/01/06 01:12:32;;;;;;;1.60;1.20;;;7.60;98.20;;;;;;6077245;23;20463;-81
2024/01/06 01:14:59;;;;;;;1.60;1.20;;;7.60;98.20;;;;;;6093140;23;20507;-83
2024/01/06 01:17:26;;;;;;;1.60;1.20;;;7.60;98.20;;;;;;6078064;23;20451;-83
2024/01/06 01:19:53;;;;;;;1.60;1.30;;;7.60;98.20;;;;;;6093986;23;20426;-82
2024/01/06 01:22:20;;;;;;;1.60;1.30;;;7.70;98.20;;;;;;6085072;23;20465;-82
2024/01/06 01:24:46;;;;;;;1.60;1.30;;;7.70;98.20;;;;;;6092731;23;20418;-82
2024/01/06 01:27:13;;;;;;;1.60;1.20;;;7.70;98.20;;;;;;6077107;23;20457;-82
2024/01/06 01:29:41;;;;;;;1.60;1.20;;;7.70;98.20;;;;;;6092972;23;20757;-83
2024/01/06 01:32:08;;;;;;;1.60;1.20;;;7.70;98.20;;;;;;6076975;23;20853;-83
2024/01/06 01:34:35;;;;;;;1.60;1.20;;;7.70;98.20;;;;;;6092208;23;20946;-82
2024/01/06 01:37:02;;;;;;;1.60;1.20;;;7.70;98.20;;;;;;6076653;23;20991;-83
2024/01/06 01:39:28;;;;;;;1.60;1.20;;;7.70;98.20;;;;;;6092719;23;20425;-83
2024/01/06 01:41:55;;;;;;;1.60;1.27;;;7.70;98.20;;;;;;6076595;23;20450;-83
2024/01/06 01:44:22;;;;;;;1.60;1.20;;;7.70;98.20;;;;;;6091701;23;20770;-82
2024/01/06 01:46:50;;;;;;;1.60;1.30;;;7.70;98.20;;;;;;6077564;23;20461;-83
2024/01/06 01:49:17;;;;;;;1.60;1.20;;;7.70;98.20;;;;;;6092829;23;20419;-84
2024/01/06 01:51:45;;;;;;;1.60;1.20;;;7.70;98.20;;;;;;6077851;23;20454;-84
2024/01/06 01:54:12;;;;;;;1.60;1.20;;;7.70;98.20;;;;;;6092845;23;20422;-83
2024/01/06 01:56:41;;;;;;;1.60;1.20;;;7.70;98.20;;;;;;6078092;23;21220;-83
2024/01/06 01:59:11;;;;;;;1.60;1.30;;;7.70;98.20;;;;;;6093040;23;20425;-84
2024/01/06 02:01:39;;;;;;;1.63;1.37;;;7.70;98.20;;;;;;6078338;23;20450;-82
2024/01/06 02:04:07;;;;;;;1.60;1.20;;;7.70;98.20;;;;;;6093749;23;20449;-82
2024/01/06 02:06:34;;;;;;;1.60;1.30;;;7.70;98.20;;;;;;6078936;23;20525;-82
2024/01/06 02:09:00;;;;;;;1.60;1.10;;;7.70;98.20;;;;;;6094461;23;20423;-83
2024/01/06 02:11:27;;;;;;;1.60;1.20;;;7.70;98.20;;;;;;6074780;23;20458;-84
2024/01/06 02:13:54;;;;;;;1.60;1.20;;;7.70;98.20;;;;;;6095371;23;20418;-83
2024/01/06 02:16:21;;;;;;;1.60;1.20;;;7.70;98.20;;;;;;6079304;23;20514;-83
2024/01/06 02:18:48;;;;;;;1.60;1.20;;;7.70;98.20;;;;;;6083201;23;20423;-83
2024/01/06 02:21:16;;;;;;;1.60;1.20;;;7.70;98.20;;;;;;6058133;23;20447;-81
2024/01/06 02:23:44;;;;;;;1.60;1.30;;;7.70;98.20;;;;;;6084102;23;20426;-84
2024/01/06 02:26:11;;;;;;;1.60;1.20;;;7.70;98.20;;;;;;6057501;23;20450;-83
2024/01/06 02:28:38;;;;;;;1.60;1.20;;;7.70;98.20;;;;;;6084991;23;20420;-83
2024/01/06 02:31:05;;;;;;;1.60;1.20;;;7.70;98.20;;;;;;6054845;23;20968;-83
2024/01/06 02:33:31;;;;;;;1.60;1.30;;;7.70;98.20;;;;;;6085675;23;20502;-83
2024/01/06 02:35:58;;;;;;;1.60;1.20;;;7.70;98.20;;;;;;6051399;23;20419;-82
2024/01/06 02:38:25;;;;;;;1.60;1.20;;;7.70;98.20;;;;;;6084034;23;20420;-82
2024/01/06 02:40:53;;;;;;;1.60;1.30;;;7.70;98.20;;;;;;6051119;23;20462;-83
2024/01/06 02:43:20;;;;;;;1.60;1.30;;;7.70;98.20;;;;;;6085009;23;20434;-83
2024/01/06 02:45:47;;;;;;;1.60;1.20;;;7.70;98.20;;;;;;6063330;23;20427;-82
2024/01/06 02:48:14;;;;;;;1.60;1.20;;;7.70;98.20;;;;;;6094067;23;20435;-81
2024/01/06 02:50:40;;;;;;;1.60;1.20;;;7.70;98.20;;;;;;6085718;23;20511;-82
2024/01/06 02:53:09;;;;;;;1.60;1.20;;;7.70;98.20;;;;;;6095361;23;20518;-83
2024/01/06 02:55:36;;;;;;;1.60;1.20;;;7.70;98.20;;;;;;6111747;23;20419;-82
2024/01/06 02:58:04;;;;;;;1.60;1.20;;;7.70;98.20;;;;;;6086438;23;20530;-83
2024/01/06 03:00:31;;;;;;;1.60;1.33;;;7.70;98.20;;;;;;6093674;23;20438;-83
2024/01/06 03:02:58;;;;;;;1.60;1.30;;;7.70;98.20;;;;;;6076918;23;20837;-83
2024/01/06 03:05:25;;;;;;;1.60;1.20;;;7.70;98.20;;;;;;6092956;23;20430;-82
2024/01/06 03:07:51;;;;;;;1.60;1.20;;;7.70;98.20;;;;;;6076903;23;20458;-83
2024/01/06 03:10:18;;;;;;;1.60;1.20;;;7.70;98.20;;;;;;6091361;23;20437;-82
2024/01/06 03:12:45;;;;;;;1.60;1.20;;;7.70;98.20;;;;;;6076935;23;20454;-82
2024/01/06 03:15:14;;;;;;;1.60;1.40;;;7.70;98.20;;;;;;6089860;23;20494;-82
2024/01/06 03:17:41;;;;;;;1.60;1.20;;;7.80;98.20;;;;;;6076235;23;20460;-82
2024/01/06 03:20:09;;;;;;;1.60;1.20;;;7.80;98.20;;;;;;6091816;23;20940;-81
2024/01/06 03:22:36;;;;;;;1.60;1.30;;;7.80;98.20;;;;;;6077663;23;20450;-82
2024/01/06 03:25:04;;;;;;;1.60;1.20;;;7.80;98.20;;;;;;6093105;23;20422;-80
2024/01/06 03:27:30;;;;;;;1.60;1.20;;;7.70;98.20;;;;;;6078174;23;20450;-81
2024/01/06 03:29:57;;;;;;;1.60;1.20;;;7.80;98.20;;;;;;6093983;23;20739;-82
2024/01/06 03:32:25;;;;;;;1.60;1.30;;;7.80;98.20;;;;;;6077821;23;20461;-82
2024/01/06 03:34:52;;;;;;;1.60;1.20;;;7.80;98.20;;;;;;6093382;23;20423;-82
2024/01/06 03:37:19;;;;;;;1.60;1.20;;;7.80;98.20;;;;;;6078687;23;20451;-80
2024/01/06 03:39:45;;;;;;;1.60;1.17;;;7.80;98.20;;;;;;6093529;23;20457;-82
2024/01/06 03:42:12;;;;;;;1.60;1.30;;;7.80;98.20;;;;;;6078638;23;20450;-82
2024/01/06 03:44:39;;;;;;;1.60;1.20;;;7.80;98.20;;;;;;6094944;23;20418;-82
2024/01/06 03:47:06;;;;;;;1.60;1.20;;;7.80;98.20;;;;;;6079844;23;20450;-81
2024/01/06 03:49:34;;;;;;;1.60;1.20;;;7.80;98.20;;;;;;6095154;23;20422;-82
2024/01/06 03:52:01;;;;;;;1.60;1.17;;;7.80;98.20;;;;;;6077314;23;20545;-82
2024/01/06 03:54:28;;;;;;;1.60;1.20;;;7.80;98.20;;;;;;6093173;23;20437;-82
2024/01/06 03:56:54;;;;;;;1.60;1.30;;;7.70;98.20;;;;;;6076528;23;20797;-82
2024/01/06 03:59:21;;;;;;;1.60;1.20;;;7.80;98.20;;;;;;6093331;23;20422;-83
2024/01/06 04:01:48;;;;;;;1.60;1.20;;;7.70;98.20;;;;;;6079156;23;20991;-82
2024/01/06 04:04:15;;;;;;;1.60;1.20;;;7.70;98.20;;;;;;6103085;23;20888;-82
2024/01/06 04:06:43;;;;;;;1.60;1.20;;;7.70;98.20;;;;;;6077565;23;20457;-82
2024/01/06 04:09:10;;;;;;;1.60;1.20;;;7.70;98.20;;;;;;6093309;23;20431;-82
2024/01/06 04:11:36;;;;;;;1.60;1.10;;;7.70;98.20;;;;;;6078767;23;20459;-82
2024/01/06 04:14:03;;;;;;;1.60;1.20;;;7.70;98.20;;;;;;6094332;23;20930;-82
2024/01/06 04:16:30;;;;;;;1.60;1.30;;;7.70;98.20;;;;;;6077346;23;20553;-81
2024/01/06 04:18:57;;;;;;;1.60;1.20;;;7.70;98.20;;;;;;6093048;23;20433;-83
2024/01/06 04:21:24;;;;;;;1.60;1.30;;;7.80;98.20;;;;;;6085198;23;20454;-82
2024/01/06 04:23:52;;;;;;;1.60;1.20;;;7.80;98.20;;;;;;6095803;23;20506;-80
2024/01/06 04:26:18;;;;;;;1.60;1.20;;;7.70;98.20;;;;;;6076042;23;20510;-81
2024/01/06 04:28:45;;;;;;;1.60;1.10;;;7.70;98.20;;;;;;6092610;23;20501;-81
2024/01/06 04:31:12;;;;;;;1.60;1.30;;;7.70;98.20;;;;;;6078691;23;20457;-80
2024/01/06 04:33:40;;;;;;;1.60;1.20;;;7.70;98.20;;;;;;6092633;23;20920;-78
2024/01/06 04:36:08;;;;;;;1.63;1.40;;;7.60;98.20;;;;;;6082356;23;20431;-79
2024/01/06 04:38:34;;;;;;;1.60;1.40;;;7.50;98.20;;;;;;6092014;23;20427;-82
2024/01/06 04:41:02;;;;;;;1.73;1.47;;;7.40;98.20;;;;;;6078719;23;20453;-79
2024/01/06 04:43:31;;;;;;;1.60;1.20;;;7.30;98.20;;;;;;6094467;23;20421;-80
2024/01/06 04:45:58;;;;;;;1.60;1.13;;;7.20;98.20;;;;;;6077982;23;20458;-81
2024/01/06 04:48:25;;;;;;;1.60;1.20;;;7.10;98.20;;;;;;6090954;23;20418;-80
2024/01/06 04:50:52;;;;;;;2.23;2.03;;;7.10;98.20;;;;;;6077472;23;20473;-81
2024/01/06 04:53:18;;;;;;;1.60;1.30;;;7.00;98.20;;;;;;6091625;23;20439;-82
2024/01/06 04:55:45;;;;;;;1.60;1.10;;;7.00;98.20;;;;;;6093100;23;20761;-81
2024/01/06 04:58:13;;;;;;;1.60;1.20;;;7.00;98.20;;;;;;6053600;23;21019;-80
2024/01/06 05:00:40;;;;;;;1.60;1.30;;;6.90;98.20;;;;;;6091969;23;20525;-82
2024/01/06 05:03:07;;;;;;;1.77;1.20;;;6.90;98.20;;;;;;6076856;23;21038;-79
2024/01/06 05:05:33;;;;;;;1.60;1.20;;;6.90;98.20;;;;;;6092143;23;20465;-81
2024/01/06 05:08:01;;;;;;;1.60;1.20;;;6.80;98.20;;;;;;6077212;23;20758;-81
2024/01/06 05:10:28;;;;;;;1.60;1.20;;;6.90;98.20;;;;;;6092620;23;20443;-83
2024/01/06 05:12:54;;;;;;;1.60;1.30;;;6.80;98.20;;;;;;6076943;23;20450;-81
2024/01/06 05:15:22;;;;;;;1.60;1.30;;;6.80;98.20;;;;;;6091697;23;20757;-80
2024/01/06 05:17:49;;;;;;;1.60;1.40;;;6.80;98.20;;;;;;6076838;23;20457;-82
2024/01/06 05:20:16;;;;;;;1.70;1.47;;;6.80;98.20;;;;;;6091862;23;20909;-81
2024/01/06 05:22:43;;;;;;;1.60;1.20;;;6.70;98.20;;;;;;6076408;23;20929;-83
2024/01/06 05:25:10;;;;;;;1.60;1.20;;;6.70;98.20;;;;;;6091732;23;20771;-82
2024/01/06 05:27:36;;;;;;;1.60;1.30;;;6.70;98.20;;;;;;6076304;23;20484;-82
2024/01/06 05:30:04;;;;;;;2.60;2.40;;;6.60;98.20;;;;;;6093730;23;20514;-82
2024/01/06 05:32:32;;;;;;;1.60;1.20;;;6.60;98.20;;;;;;6077961;23;20450;-83
2024/01/06 05:34:59;;;;;;;2.43;2.23;;;6.50;98.20;;;;;;6094011;23;20505;-82
2024/01/06 05:37:25;;;;;;;1.60;1.30;;;6.60;98.20;;;;;;6077061;23;20537;-82
2024/01/06 05:39:54;;;;;;;1.60;1.30;;;6.50;98.20;;;;;;6092920;23;20458;-82
2024/01/06 05:42:21;;;;;;;1.60;1.20;;;6.50;98.20;;;;;;6076312;23;20860;-82
2024/01/06 05:44:47;;;;;;;1.60;1.30;;;6.50;98.20;;;;;;6092239;23;20509;-82
2024/01/06 05:47:14;;;;;;;1.60;1.30;;;6.50;98.20;;;;;;6077565;23;20450;-82
2024/01/06 05:49:44;;;;;;;1.60;1.30;;;6.50;98.20;;;;;;6094346;23;20425;-81
2024/01/06 05:52:11;;;;;;;1.60;1.30;;;6.50;98.20;;;;;;6078689;23;20450;-82
2024/01/06 05:54:41;;;;;;;1.60;1.30;;;6.50;98.20;;;;;;6094815;23;20460;-83
2024/01/06 05:57:08;;;;;;;1.60;1.20;;;6.50;98.20;;;;;;6080183;23;20454;-83
2024/01/06 05:59:35;;;;;;;1.70;1.50;;;6.50;98.20;;;;;;6094760;23;20448;-81
2024/01/06 06:02:02;;;;;;;1.60;1.30;;;6.50;98.20;;;;;;6080900;23;20725;-82
2024/01/06 06:04:29;;;;;;;1.63;1.30;;;6.50;98.20;;;;;;6093545;23;20914;-82
2024/01/06 06:06:58;;;;;;;1.60;1.20;;;6.50;98.20;;;;;;6079780;23;20457;-82
2024/01/06 06:09:24;;;;;;;1.63;1.30;;;6.50;98.20;;;;;;6094953;23;20422;-82
2024/01/06 06:11:51;;;;;;;1.63;1.30;;;6.50;98.20;;;;;;6079860;23;21074;-82
2024/01/06 06:14:18;;;;;;;1.60;1.20;;;6.40;98.20;;;;;;6099248;23;20433;-82
2024/01/06 06:16:47;;;;;;;1.60;1.30;;;6.40;98.20;;;;;;6081609;23;20481;-81
2024/01/06 06:19:14;;;;;;;1.60;1.20;;;6.40;98.20;;;;;;6094156;23;20418;-82
2024/01/06 06:21:41;;;;;;;1.60;1.30;;;6.40;98.20;;;;;;6080083;23;20586;-81
2024/01/06 06:24:09;;;;;;;1.60;1.30;;;6.40;98.20;;;;;;6096461;23;20430;-82
2024/01/06 06:26:36;;;;;;;1.60;1.30;;;6.40;98.20;;;;;;6078283;23;20457;-82
2024/01/06 06:29:03;;;;;;;1.60;1.30;;;6.40;98.20;;;;;;6094249;23;20505;-83
2024/01/06 06:31:30;;;;;;;1.60;1.20;;;6.40;98.20;;;;;;6079604;23;20727;-82
2024/01/06 06:33:56;;;;;;;1.60;1.40;;;6.40;98.20;;;;;;6094323;23;20501;-82
2024/01/06 06:36:23;;;;;;;1.70;1.40;;;6.30;98.20;;;;;;6080235;23;20457;-83
2024/01/06 06:38:50;;;;;;;1.60;1.27;;;6.30;98.20;;;;;;6093669;23;20418;-82
2024/01/06 06:41:19;;;;;;;1.60;1.30;;;6.30;98.20;;;;;;6080535;23;20450;-82
2024/01/06 06:43:46;;;;;;;1.63;1.30;;;6.30;98.20;;;;;;6094304;23;20446;-82
2024/01/06 06:46:13;;;;;;;1.60;1.20;;;6.30;98.20;;;;;;6080036;23;20485;-82
2024/01/06 06:48:40;;;;;;;1.60;1.20;;;6.30;98.20;;;;;;6089180;23;20873;-82
2024/01/06 06:51:07;;;;;;;1.70;1.37;;;6.30;98.20;;;;;;6080148;23;20727;-82
2024/01/06 06:53:33;;;;;;;1.67;1.40;;;6.30;98.20;;;;;;6092603;23;20594;-81
2024/01/06 06:56:00;;;;;;;1.60;1.27;;;6.30;98.20;;;;;;6079772;23;20855;-83
2024/01/06 06:58:28;;;;;;;1.60;1.20;;;6.30;98.20;;;;;;6094620;23;20769;-82
2024/01/06 07:00:55;;;;;;;1.60;1.23;;;6.30;98.20;;;;;;6081848;23;20470;-83
2024/01/06 07:03:22;;;;;;;1.67;1.40;;;6.30;98.20;;;;;;6093683;23;20443;-82
2024/01/06 07:05:48;;;;;;;1.60;1.30;;;6.30;98.20;;;;;;6081572;23;20465;-79
2024/01/06 07:08:15;;;;;;;1.70;1.30;;;6.30;98.20;;;;;;6091545;23;20916;-79
2024/01/06 07:10:42;;;;;;;1.60;1.30;;;6.30;98.20;;;;;;6093708;23;20470;-79
2024/01/06 07:13:09;;;;;;;1.60;1.30;;;6.30;98.20;;;;;;6079101;23;20454;-81
2024/01/06 07:15:37;;;;;;;1.60;1.20;;;6.30;98.20;;;;;;6094087;23;20526;-81
2024/01/06 07:18:03;;;;;;;1.60;1.30;;;6.30;98.20;;;;;;6078496;23;20450;-78
2024/01/06 07:20:30;;;;;;;1.70;1.33;;;6.30;98.20;;;;;;6094007;23;20443;-81
2024/01/06 07:22:57;;;;;;;1.60;1.20;;;6.20;98.20;;;;;;6075202;23;20452;-81
2024/01/06 07:25:24;;;;;;;1.60;1.20;;;6.20;98.20;;;;;;6091126;23;20422;-81
2024/01/06 07:27:50;;;;;;;1.60;1.30;;;6.20;98.20;;;;;;6078371;23;20538;-79
2024/01/06 07:30:17;;;;;;;1.70;1.30;;;6.20;98.20;;;;;;6104408;23;20529;-81
2024/01/06 07:32:46;;;;;;;1.60;1.30;;;6.20;98.20;;;;;;6078596;23;20530;-81
2024/01/06 07:35:12;;;;;;;1.60;1.20;;;6.10;98.20;;;;;;6095592;23;20418;-81
2024/01/06 07:37:39;;;;;;;1.60;1.30;;;6.10;98.20;;;;;;6081911;23;20454;-82
2024/01/06 07:40:07;;;;;;;1.67;1.40;;;6.10;98.20;;;;;;6096821;23;20931;-82
2024/01/06 07:42:34;;;;;;;1.60;1.20;;;6.20;98.20;;;;;;6082575;23;20477;-83
2024/01/06 07:45:02;;;;;;;1.60;1.30;;;6.20;98.20;;;;;;6093099;23;20497;-81
2024/01/06 07:47:28;;;;;;;1.63;1.30;;;6.10;98.20;;;;;;6078559;23;20562;-82
2024/01/06 07:49:57;;;;;;;1.60;1.30;;;6.10;98.20;;;;;;6093562;23;20767;-81
2024/01/06 07:52:23;;;;;;;1.60;1.30;;;6.10;98.20;;;;;;6080363;23;21054;-81
2024/01/06 07:54:50;;;;;;;1.60;1.30;;;6.10;98.20;;;;;;6094853;23;20927;-80
2024/01/06 07:57:17;;;;;;;1.60;1.40;;;6.10;98.20;;;;;;6079151;23;20450;-80
2024/01/06 07:59:44;;;;;;;1.60;1.30;;;6.00;98.20;;;;;;6099662;23;20419;-82
2024/01/06 08:02:10;;;;;;;1.67;1.40;;;6.00;98.20;;;;;;6085151;23;20800;-83
2024/01/06 08:04:37;;;;;;;1.60;1.30;;;6.00;98.20;;;;;;6098163;23;20468;-82
2024/01/06 08:07:05;;;;;;;1.67;1.40;;;6.00;98.20;;;;;;6085794;23;20450;-83
2024/01/06 08:09:32;;;;;;;1.60;1.30;;;5.90;98.20;;;;;;6101047;23;20442;-79
2024/01/06 08:11:59;;;;;;;1.70;1.50;;;5.90;98.20;;;;;;6086487;23;20458;-82
2024/01/06 08:14:26;;;;;;;1.63;1.30;;;5.90;98.20;;;;;;6100039;23;20429;-82
2024/01/06 08:16:53;;;;;;;1.60;1.30;;;5.90;98.20;;;;;;6085206;23;20450;-82
2024/01/06 08:19:19;;;;;;;1.60;1.30;;;5.90;98.20;;;;;;6100274;23;20486;-82
2024/01/06 08:21:47;;;;;;;1.60;1.30;;;5.90;98.20;;;;;;6085932;23;20554;-82
2024/01/06 08:24:15;;;;;;;1.67;1.30;;;5.90;98.20;;;;;;6095834;23;20533;-82
2024/01/06 08:26:42;;;;;;;1.70;1.30;;;5.90;98.20;;;;;;6079435;23;20451;-82
2024/01/06 08:29:08;;;;;;;1.60;1.30;;;5.90;98.20;;;;;;6093149;23;20419;-81
2024/01/06 08:31:35;;;;;;;1.60;1.30;;;5.90;98.20;;;;;;6078174;23;20776;-82
2024/01/06 08:34:02;;;;;;;1.60;1.30;;;5.90;98.20;;;;;;6093775;23;20425;-84
2024/01/06 08:36:29;;;;;;;1.60;1.30;;;5.90;98.20;;;;;;6080719;23;20537;-84
2024/01/06 08:38:55;;;;;;;1.67;1.30;;;5.90;98.20;;;;;;6103477;23;20446;-83
2024/01/06 08:41:24;;;;;;;1.60;1.30;;;5.90;98.20;;;;;;6094632;23;20454;-82
2024/01/06 08:43:50;;;;;;;1.63;1.30;;;5.90;98.20;;;;;;6106860;23;20461;-82
2024/01/06 08:46:17;;;;;;;1.60;1.30;;;5.90;98.20;;;;;;6093185;23;20446;-82
2024/01/06 08:48:44;;;;;;;1.60;1.30;;;5.90;98.20;;;;;;6109390;23;20998;-81
2024/01/06 08:51:11;;;;;;;1.63;1.33;;;5.90;98.20;;;;;;6093469;23;20521;-81
2024/01/06 08:53:38;;;;;;;1.60;1.30;;;6.00;98.20;;;;;;6107501;23;20442;-82
2024/01/06 08:56:06;;;;;;;1.60;1.30;;;6.00;98.20;;;;;;6093322;23;20473;-82
2024/01/06 08:58:34;;;;;;;1.60;1.30;;;6.00;98.20;;;;;;6109013;23;20419;-83
2024/01/06 09:01:01;;;;;;;1.60;1.20;;;6.00;98.20;;;;;;6095956;23;20442;-82
2024/01/06 09:03:27;;;;;;;1.67;1.30;;;6.00;98.20;;;;;;6108503;23;20521;-82
2024/01/06 09:05:56;;;;;;;1.63;1.30;;;6.00;98.20;;;;;;6092632;23;20429;-79
2024/01/06 09:08:24;;;;;;;1.60;1.30;;;6.00;98.20;;;;;;6108459;23;20506;-79
2024/01/06 09:10:51;;;;;;;1.60;1.27;;;6.00;98.20;;;;;;6096469;23;20565;-82
2024/01/06 09:13:18;;;;;;;1.60;1.30;;;6.00;98.20;;;;;;6108657;23;20419;-82
2024/01/06 09:15:46;;;;;;;1.60;1.30;;;6.00;98.20;;;;;;6108647;23;20505;-81
2024/01/06 09:18:13;;;;;;;1.60;1.30;;;6.00;98.20;;;;;;6065097;23;20491;-82
2024/01/06 09:20:40;;;;;;;1.60;1.27;;;6.00;98.20;;;;;;6080443;23;20436;-83
2024/01/06 09:23:07;;;;;;;1.63;1.30;;;6.00;98.20;;;;;;6095262;23;20533;-80
2024/01/06 09:25:34;;;;;;;1.60;1.20;;;5.90;98.20;;;;;;6110697;23;20936;-80
2024/01/06 09:28:00;;;;;;;1.60;1.27;;;5.90;98.20;;;;;;6065171;23;20514;-79
2024/01/06 09:30:27;;;;;;;1.60;1.30;;;5.90;98.20;;;;;;6076887;23;20454;-79
2024/01/06 09:32:55;;;;;;;1.60;1.30;;;5.90;98.20;;;;;;6064392;23;20447;-80
2024/01/06 09:35:23;;;;;;;1.60;1.30;;;6.00;98.20;;;;;;6079525;23;20479;-82
2024/01/06 09:37:49;;;;;;;1.63;1.30;;;6.00;98.20;;;;;;6064901;23;20455;-81
2024/01/06 09:40:22;;;;;;;1.60;1.30;;;6.00;98.20;;;;;;6079549;23;20429;-81
2024/01/06 09:42:49;;;;;;;1.70;1.40;;;6.00;98.20;;;;;;6067034;23;20978;-81
2024/01/06 09:45:16;;;;;;;1.60;1.20;;;6.00;98.20;;;;;;6082549;23;20481;-81
2024/01/06 09:47:48;;;;;;;1.67;1.30;;;5.90;98.20;;;;;;6088958;23;20474;-78
2024/01/06 09:50:19;;;;;;;1.63;1.30;;;6.00;98.20;;;;;;6078924;23;20475;-81
2024/01/06 09:52:53;;;;;;;1.60;1.30;;;6.00;98.20;;;;;;6097050;23;20469;-79
2024/01/06 09:55:24;;;;;;;1.60;1.30;;;6.00;98.20;;;;;;6083745;23;20411;-82
2024/01/06 09:57:51;;;;;;;1.60;1.30;;;6.00;98.20;;;;;;6090819;23;20457;-80
2024/01/06 10:00:19;;;;;;;1.60;1.20;;;6.00;98.20;;;;;;6099527;23;20453;-78
2024/01/06 10:02:50;;;;;;;1.60;1.27;;;6.00;98.20;;;;;;6129128;23;20997;-79
2024/01/06 10:05:19;;;;;;;1.60;1.20;;;6.00;98.20;;;;;;6140166;23;20426;-81
2024/01/06 10:07:47;;;;;;;1.60;1.30;;;6.00;98.20;;;;;;6108563;23;21033;-80
2024/01/06 10:10:14;;;;;;;1.63;1.30;;;6.10;98.20;;;;;;6150197;23;20483;-80
2024/01/06 10:15:39;;;;;;;1.63;1.30;;;6.10;98.20;;;;;;6140151;23;20436;-78
2024/01/06 10:18:08;;;;;;;1.60;1.30;;;6.10;98.20;;;;;;6143005;23;20523;-80
2024/01/06 10:20:36;;;;;;;1.67;1.40;;;6.10;98.20;;;;;;6161800;23;20938;-80
2024/01/06 10:23:06;;;;;;;1.67;1.30;;;6.20;98.20;;;;;;6131727;23;20472;-79
2024/01/06 10:25:33;;;;;;;1.60;1.20;;;6.20;98.20;;;;;;6150291;23;20425;-80
2024/01/06 10:28:05;;;;;;;1.60;1.30;;;6.10;98.20;;;;;;6134053;23;20524;-79
2024/01/06 10:30:38;;;;;;;1.60;1.30;;;6.10;98.20;;;;;;6160679;23;20459;-79
2024/01/06 10:33:14;;;;;;;1.60;1.20;;;6.10;98.20;;;;;;6134597;23;20492;-79
2024/01/06 10:35:44;;;;;;;1.70;1.30;;;6.10;98.20;;;;;;6159814;23;20819;-78
2024/01/06 10:38:26;;;;;;;1.67;1.40;;;6.10;98.20;;;;;;6111192;23;20499;-80
2024/01/06 10:41:01;;;;;;;1.60;1.23;;;6.10;98.20;;;;;;6135469;23;21030;-79
2024/01/06 10:43:36;;;;;;;1.60;1.30;;;6.00;98.20;;;;;;6158828;23;20440;-79
2024/01/06 10:49:21;;;;;;;1.60;1.20;;;6.00;98.20;;;;;;6147794;23;20435;-79
2024/01/06 10:51:50;;;;;;;1.63;1.30;;;6.00;98.20;;;;;;6140563;23;20504;-79
2024/01/06 10:54:25;;;;;;;1.60;1.20;;;6.00;98.20;;;;;;6158123;23;20793;-82
2024/01/06 10:56:58;;;;;;;1.63;1.30;;;6.00;98.20;;;;;;6140357;23;20444;-80
2024/01/06 10:59:38;;;;;;;1.60;1.30;;;6.00;98.20;;;;;;6150914;23;20420;-80
2024/01/06 11:02:07;;;;;;;1.63;1.33;;;6.00;98.20;;;;;;6136435;23;20786;-78
2024/01/06 11:04:34;;;;;;;1.70;1.40;;;6.00;98.20;;;;;;6147453;23;20453;-79
2024/01/06 11:07:03;;;;;;;1.63;1.40;;;6.00;98.20;;;;;;6130441;23;20566;-77
2024/01/06 11:09:35;;;;;;;1.60;1.30;;;6.10;98.20;;;;;;6147228;23;20416;-77
2024/01/06 11:12:03;;;;;;;1.60;1.30;;;6.10;98.20;;;;;;6131199;23;20961;-77
2024/01/06 11:14:37;;;;;;;1.60;1.30;;;6.10;98.20;;;;;;6149211;23;20909;-77
2024/01/06 11:17:04;;;;;;;1.60;1.30;;;6.00;98.20;;;;;;6132545;23;20797;-77
2024/01/06 11:19:46;;;;;;;1.60;1.30;;;6.00;98.20;;;;;;6158584;23;20469;-77
2024/01/06 11:22:26;;;;;;;1.60;1.30;;;5.90;98.20;;;;;;6137186;23;21075;-77
2024/01/06 11:24:55;;;;;;;1.70;1.30;;;5.90;98.20;;;;;;6155567;23;20471;-77
2024/01/06 11:27:26;;;;;;;1.60;1.20;;;5.90;98.20;;;;;;6130851;23;20448;-77
2024/01/06 11:29:54;;;;;;;1.60;1.20;;;5.80;98.20;;;;;;6147500;23;20573;-77
2024/01/06 11:32:25;;;;;;;1.60;1.23;;;5.80;98.20;;;;;;6134045;23;20453;-78
2024/01/06 11:34:53;;;;;;;1.60;1.30;;;5.80;98.20;;;;;;6146075;23;20397;-77
2024/01/06 11:37:26;;;;;;;1.60;1.20;;;5.80;98.20;;;;;;6131791;23;21153;-78
2024/01/06 11:39:54;;;;;;;1.60;1.30;;;5.80;98.20;;;;;;6147317;23;20906;-78
2024/01/06 11:42:21;;;;;;;1.60;1.20;;;5.70;98.20;;;;;;6131449;23;20452;-79
2024/01/06 11:44:52;;;;;;;1.60;1.30;;;5.70;98.20;;;;;;6159168;23;20483;-79
2024/01/06 11:47:23;;;;;;;1.60;1.30;;;5.60;98.20;;;;;;6137540;23;20448;-78
2024/01/06 11:49:54;;;;;;;1.63;1.40;;;5.60;98.20;;;;;;6150381;23;20401;-77
2024/01/06 11:52:22;;;;;;;1.63;1.33;;;5.60;98.20;;;;;;6133009;23;20484;-78
2024/01/06 11:54:52;;;;;;;1.60;1.20;;;5.60;98.20;;;;;;6149803;23;20420;-78
2024/01/06 11:57:19;;;;;;;1.60;1.20;;;5.60;98.20;;;;;;6138273;23;20974;-79
2024/01/06 11:59:47;;;;;;;1.60;1.30;;;5.60;98.20;;;;;;6150081;23;20825;-78
2024/01/06 12:02:14;;;;;;;1.70;1.30;;;5.60;98.20;;;;;;6138285;23;20445;-79
2024/01/06 12:04:43;;;;;;;1.60;1.30;;;5.50;98.20;;;;;;6151409;23;20453;-78
2024/01/06 12:07:13;;;;;;;1.60;1.30;;;5.50;98.20;;;;;;6137042;23;20451;-79
2024/01/06 12:09:40;;;;;;;1.63;1.30;;;5.50;98.20;;;;;;6162319;23;21002;-79
2024/01/06 12:12:10;;;;;;;1.60;1.30;;;5.50;98.20;;;;;;6135701;23;20476;-79
2024/01/06 12:14:38;;;;;;;1.60;1.30;;;5.50;98.20;;;;;;6159437;23;20424;-78
2024/01/06 12:17:05;;;;;;;1.63;1.30;;;5.50;98.20;;;;;;6140794;23;20445;-79
2024/01/06 12:19:34;;;;;;;1.60;1.40;;;5.50;98.20;;;;;;6150956;23;20432;-79
2024/01/06 12:22:02;;;;;;;1.60;1.30;;;5.50;98.20;;;;;;6133701;23;20559;-79
2024/01/06 12:24:30;;;;;;;1.60;1.30;;;5.50;98.20;;;;;;6159930;23;20476;-79
2024/01/06 12:26:58;;;;;;;1.60;1.30;;;5.40;98.20;;;;;;6133468;23;20468;-79
2024/01/06 12:29:29;;;;;;;1.67;1.37;;;5.40;98.20;;;;;;6149467;23;20957;-79
2024/01/06 12:31:57;;;;;;;1.70;1.40;;;5.40;98.20;;;;;;6136541;23;20600;-79
2024/01/06 12:34:24;;;;;;;1.60;1.30;;;5.30;98.20;;;;;;6145773;23;20421;-79
2024/01/06 12:36:55;;;;;;;1.60;1.30;;;5.30;98.20;;;;;;6139223;23;20993;-79
2024/01/06 12:39:23;;;;;;;1.60;1.30;;;5.30;98.20;;;;;;6147600;23;20448;-79
2024/01/06 12:41:52;;;;;;;1.63;1.30;;;5.30;98.20;;;;;;6130356;23;20457;-79
2024/01/06 12:44:19;;;;;;;1.90;1.53;;;5.30;98.20;;;;;;6145024;23;20489;-80
2024/01/06 12:46:48;;;;;;;1.67;1.40;;;5.20;98.20;;;;;;6130142;23;20884;-79
2024/01/06 12:49:15;;;;;;;1.60;1.30;;;5.20;98.20;;;;;;6146041;23;20514;-79
2024/01/06 12:51:42;;;;;;;2.30;1.97;;;5.20;98.20;;;;;;6131377;23;21002;-79
2024/01/06 12:54:09;;;;;;;1.60;1.30;;;5.20;98.20;;;;;;6147754;23;20440;-78
2024/01/06 12:56:36;;;;;;;1.70;1.30;;;5.20;98.20;;;;;;6130541;23;20453;-79
2024/01/06 12:59:04;;;;;;;1.60;1.30;;;5.20;98.20;;;;;;6145842;23;20431;-79
2024/01/06 13:01:31;;;;;;;1.67;1.30;;;5.20;98.20;;;;;;6132777;23;20603;-78
2024/01/06 13:04:00;;;;;;;1.70;1.40;;;5.10;98.20;;;;;;6158769;23;20456;-80
2024/01/06 13:06:27;;;;;;;1.60;1.20;;;5.10;98.20;;;;;;6137929;23;20484;-78
2024/01/06 13:08:56;;;;;;;2.63;2.13;;;5.10;98.20;;;;;;6147555;23;20421;-79
2024/01/06 13:11:25;;;;;;;1.67;1.30;;;5.10;98.20;;;;;;6132672;23;20934;-79
2024/01/06 13:13:52;;;;;;;2.03;1.83;;;5.10;98.20;;;;;;6147084;23;20459;-79